Redwood City, CA (94063)

4:19 PM PDT on April 25, 2015 (GMT -0700)
Sterling Heights | | Change Station
CLOSE
Current Station
Personal Weather Station
Location: Redwood City, CA
Elevation: 134 ft
Nearby Weather Stations

Elev 134 ft 37.46 °N, 122.25 °W | Updated 2 seconds ago

Mostly Cloudy
Mostly Cloudy
58.8 °F
Feels Like 58.8 °F
N
6.9
Wind Variable Wind from NNW
Gusts 17.0 mph

Today
High -- | Low -- °F
--% Chance of Precip.
Yesterday
High -- | Low -- °F
Precip. -- in
6:20 AM 7:53 PM
Waxing Crescent, 50% visible
Pressure 30.00 in
Visibility 10.0 miles
Clouds Few 2500 ft
Mostly Cloudy 18000 ft
Dew Point 47 °F
Humidity 65%
Rainfall 0.56 in
Snow Depth Not available.
UV 4 out of 12
Pollen 4.70 out of 12
Air Quality Not available.
Flu Activity Sporadic
METAR KSQL 252247Z 29015G20KT 10SM FEW025 BKN180 16/07 A3000

More Conditions Fewer Conditions

Pressure 30.00 in
Visibility 10.0 miles
Clouds Few 2500 ft
Mostly Cloudy 18000 ft
Dew Point 47 °F
Humidity 65%
Rainfall 0.56 in
Snow Depth Not available.
UV 4 out of 12
Pollen 4.70 out of 12
Air Quality Not available.
Flu Activity Sporadic
METAR KSQL 252247Z 29015G20KT 10SM FEW025 BKN180 16/07 A3000

More Conditions Fewer Conditions

10-Day Weather Forecast

Almanac

Astronomy

Apr. 25, 2015 Rise Set
Actual Time
Civil Twilight
Nautical Twilight
Astronomical Twilight
Moon
Length of Visible Light
Length of Day
Tomorrow will be .
, % of the Moon is Illuminated

Today's Extremes

State Highs State Lows

Community

WunderPhotos

Upload Photos

1,816,845 photos uploaded!

WunderBlogs® & News

Nearby

Air Quality

  Air Quality AQ Index Pollutant
Not available.

Snow Depth

Station Depth Elevation

Earthquake Activity

City Distance Mag. Time & Date
Minimum magnitude displayed is 2.5.

Coastal Water Temperatures

Place Temperature

Stations

Nearby Weather Stations

Station Location Temp. Windchill Dew Point Humidity Wind Precip. Elev Updated Type